createdAt,value
2022-11-24T00:01:09.959Z,60.93
2022-11-24T00:03:38.549Z,60.76
2022-11-24T00:06:07.529Z,60.74
2022-11-24T00:08:35.173Z,61.03
2022-11-24T00:11:07.312Z,61.13
2022-11-24T00:13:35.406Z,61.18
2022-11-24T00:16:09.220Z,61.44
2022-11-24T00:18:41.888Z,61.58
2022-11-24T00:21:09.730Z,61.30
2022-11-24T00:23:37.755Z,61.65
2022-11-24T00:26:08.563Z,61.40
2022-11-24T00:28:37.062Z,61.41
2022-11-24T00:31:16.960Z,61.28
2022-11-24T00:33:47.750Z,61.74
2022-11-24T00:36:16.635Z,61.35
2022-11-24T00:38:44.588Z,61.82
2022-11-24T00:41:12.380Z,61.54
2022-11-24T00:43:39.780Z,62.04
2022-11-24T00:46:07.627Z,62.09
2022-11-24T00:48:35.180Z,61.76
2022-11-24T00:51:08.647Z,61.66
2022-11-24T00:53:36.318Z,61.45
2022-11-24T00:56:04.515Z,61.74
2022-11-24T00:58:33.192Z,61.57
2022-11-24T01:01:04.674Z,61.55
2022-11-24T01:03:33.094Z,61.25
2022-11-24T01:06:05.802Z,61.30
2022-11-24T01:08:33.261Z,61.44
2022-11-24T01:11:13.647Z,61.08
2022-11-24T01:13:42.487Z,60.96
2022-11-24T01:16:17.438Z,61.13
2022-11-24T01:18:44.702Z,60.69
2022-11-24T01:21:16.045Z,60.83
2022-11-24T01:23:43.281Z,60.46
2022-11-24T01:26:14.167Z,60.74
2022-11-24T01:28:46.693Z,61.02
2022-11-24T01:31:16.404Z,60.31
2022-11-24T01:33:43.464Z,60.37
2022-11-24T01:36:11.926Z,60.43
2022-11-24T01:38:38.957Z,60.77
2022-11-24T01:41:10.270Z,60.51
2022-11-24T01:43:37.304Z,60.65
2022-11-24T01:46:16.430Z,60.61
2022-11-24T01:48:49.391Z,60.39
2022-11-24T01:51:23.590Z,60.19
2022-11-24T01:53:57.958Z,60.57
2022-11-24T01:56:25.625Z,60.53
2022-11-24T01:58:58.034Z,60.27
2022-11-24T02:01:25.704Z,60.07
2022-11-24T02:03:53.547Z,60.39
2022-11-24T02:06:27.365Z,60.21
2022-11-24T02:09:02.517Z,60.55
2022-11-24T02:11:34.943Z,60.62
2022-11-24T02:14:03.906Z,60.35
2022-11-24T02:16:32.477Z,60.34
2022-11-24T02:18:59.598Z,60.15
2022-11-24T02:21:28.189Z,60.73
2022-11-24T02:24:05.856Z,60.16
2022-11-24T02:26:41.958Z,60.65
2022-11-24T02:29:11.289Z,60.44
2022-11-24T02:31:39.959Z,60.41
2022-11-24T02:34:06.894Z,60.48
2022-11-24T02:36:33.917Z,60.66
2022-11-24T02:39:00.876Z,60.29
2022-11-24T02:41:29.048Z,60.74
2022-11-24T02:44:01.431Z,60.50
2022-11-24T02:46:28.379Z,60.51
2022-11-24T02:48:55.568Z,60.90
2022-11-24T02:51:22.951Z,60.97
2022-11-24T02:53:49.873Z,60.62
2022-11-24T02:56:16.807Z,60.62
2022-11-24T02:58:43.715Z,60.89
2022-11-24T03:01:12.095Z,60.79
2022-11-24T03:03:39.145Z,60.69
2022-11-24T03:06:06.279Z,60.61
2022-11-24T03:08:33.218Z,60.65
2022-11-24T03:11:01.444Z,60.53
2022-11-24T03:13:28.652Z,60.49
2022-11-24T03:15:55.771Z,60.41
2022-11-24T03:18:24.156Z,60.51
2022-11-24T03:20:51.100Z,60.45
2022-11-24T03:23:18.046Z,60.67
2022-11-24T03:25:44.990Z,60.36
2022-11-24T03:28:11.912Z,60.96
2022-11-24T03:30:38.903Z,60.77
2022-11-24T03:33:07.108Z,60.87
2022-11-24T03:35:35.406Z,61.04
2022-11-24T03:38:03.381Z,61.22
2022-11-24T03:40:30.391Z,61.63
2022-11-24T03:42:57.344Z,61.91
2022-11-24T03:48:11.221Z,61.94
2022-11-24T03:50:39.585Z,61.99
2022-11-24T03:53:06.537Z,62.90
2022-11-24T03:55:33.474Z,62.99
2022-11-24T03:58:00.472Z,62.68
2022-11-24T04:00:28.151Z,62.67
2022-11-24T04:02:55.137Z,63.01
2022-11-24T04:05:22.121Z,62.72
2022-11-24T04:07:50.441Z,62.70
2022-11-24T04:10:17.742Z,62.08
2022-11-24T04:12:44.669Z,62.24
2022-11-24T04:15:14.592Z,62.61
2022-11-24T04:17:43.086Z,62.24
2022-11-24T04:20:12.212Z,62.01
2022-11-24T04:22:39.834Z,62.28
2022-11-24T04:25:10.600Z,62.12
2022-11-24T04:27:38.541Z,62.23
2022-11-24T04:30:08.253Z,62.41
2022-11-24T04:32:35.919Z,62.26
2022-11-24T04:35:03.846Z,62.41
2022-11-24T04:37:30.847Z,62.60
2022-11-24T04:39:57.762Z,61.98
2022-11-24T04:42:26.107Z,62.28
2022-11-24T04:44:53.085Z,62.13
2022-11-24T04:47:22.525Z,61.87
2022-11-24T04:49:50.597Z,62.17
2022-11-24T04:52:19.400Z,61.86
2022-11-24T04:54:46.830Z,62.01
2022-11-24T04:57:17.573Z,62.33
2022-11-24T04:59:46.200Z,61.73
2022-11-24T05:02:13.301Z,62.08
2022-11-24T05:04:40.693Z,62.22
2022-11-24T05:07:12.365Z,62.66
2022-11-24T05:10:02.218Z,62.64
2022-11-24T05:12:31.124Z,62.58
2022-11-24T05:15:00.815Z,62.53
2022-11-24T05:17:29.500Z,62.77
2022-11-24T05:19:57.064Z,62.49
2022-11-24T05:22:24.171Z,62.90
2022-11-24T05:24:51.417Z,62.78
2022-11-24T05:27:18.363Z,62.60
2022-11-24T05:29:45.403Z,62.36
2022-11-24T05:32:13.701Z,62.40
2022-11-24T05:34:41.055Z,62.29
2022-11-24T05:37:08.211Z,62.43
2022-11-24T05:39:36.525Z,62.12
2022-11-24T05:42:25.443Z,62.20
2022-11-24T05:44:53.174Z,62.36
2022-11-24T05:47:22.108Z,62.52
2022-11-24T05:49:49.433Z,62.72
2022-11-24T05:52:16.602Z,62.34
2022-11-24T05:54:43.618Z,62.79
2022-11-24T05:57:10.567Z,62.35
2022-11-24T05:59:37.535Z,62.39
2022-11-24T06:02:04.677Z,62.38
2022-11-24T06:04:33.383Z,62.26
2022-11-24T06:07:00.523Z,62.36
2022-11-24T06:09:27.509Z,62.27
2022-11-24T06:11:54.685Z,62.51
2022-11-24T06:14:21.800Z,62.71
2022-11-24T06:16:48.812Z,62.77
2022-11-24T06:19:15.812Z,63.04
2022-11-24T06:21:44.148Z,63.11
2022-11-24T06:24:11.282Z,63.79
2022-11-24T06:26:38.286Z,63.25
2022-11-24T06:29:05.441Z,63.09
2022-11-24T06:31:32.872Z,63.30
2022-11-24T06:34:00.633Z,62.98
2022-11-24T06:36:28.010Z,62.94
2022-11-24T06:38:56.355Z,63.20
2022-11-24T06:41:23.401Z,63.21
2022-11-24T06:43:50.363Z,63.13
2022-11-24T06:46:18.763Z,63.44
2022-11-24T06:48:45.726Z,63.68
2022-11-24T06:51:13.141Z,64.10
2022-11-24T06:53:41.230Z,63.41
2022-11-24T06:56:16.109Z,63.87
2022-11-24T06:58:47.235Z,64.23
2022-11-24T07:01:14.997Z,63.78
2022-11-24T07:03:42.153Z,63.89
2022-11-24T07:06:09.119Z,64.08
2022-11-24T07:08:36.103Z,63.75
2022-11-24T07:11:06.014Z,63.87
2022-11-24T07:13:34.586Z,63.52
2022-11-24T07:16:12.413Z,63.76
2022-11-24T07:18:39.535Z,63.94
2022-11-24T07:21:07.007Z,63.80
2022-11-24T07:23:33.973Z,63.70
2022-11-24T07:26:06.744Z,64.01
2022-11-24T07:28:37.087Z,64.02
2022-11-24T07:31:07.082Z,63.98
2022-11-24T07:33:34.353Z,63.51
2022-11-24T07:36:02.707Z,63.80
2022-11-24T07:38:31.492Z,63.43
2022-11-24T07:41:04.280Z,63.19
2022-11-24T07:43:33.257Z,63.18
2022-11-24T07:46:02.275Z,63.23
2022-11-24T07:48:29.417Z,62.79
2022-11-24T07:51:00.389Z,62.68
2022-11-24T07:53:27.428Z,62.67
2022-11-24T07:55:56.545Z,62.29
2022-11-24T07:58:27.615Z,62.64
2022-11-24T08:00:57.870Z,62.28
2022-11-24T08:03:26.424Z,62.00
2022-11-24T08:06:22.218Z,62.17
2022-11-24T08:08:41.801Z,61.89
2022-11-24T08:11:11.851Z,61.87
2022-11-24T08:13:39.463Z,61.50
2022-11-24T08:16:09.481Z,61.52
2022-11-24T08:18:39.180Z,61.61
2022-11-24T08:21:07.363Z,61.32
2022-11-24T08:23:35.010Z,61.30
2022-11-24T08:26:05.294Z,61.29
2022-11-24T08:28:33.291Z,61.62
2022-11-24T08:31:05.826Z,60.90
2022-11-24T08:33:33.565Z,61.02
2022-11-24T08:36:08.727Z,60.86
2022-11-24T08:38:36.866Z,60.69
2022-11-24T08:41:07.054Z,60.75
2022-11-24T08:43:34.549Z,60.95
2022-11-24T08:46:02.850Z,60.83
2022-11-24T08:48:30.551Z,60.58
2022-11-24T08:50:58.303Z,60.58
2022-11-24T08:53:26.732Z,60.21
2022-11-24T08:55:58.813Z,60.20
2022-11-24T08:58:25.873Z,59.84
2022-11-24T09:00:53.470Z,59.78
2022-11-24T09:03:20.741Z,59.72
2022-11-24T09:05:52.528Z,59.72
2022-11-24T09:08:20.601Z,59.37
2022-11-24T09:10:49.099Z,59.05
2022-11-24T09:13:16.103Z,59.09
2022-11-24T09:15:43.524Z,58.96
2022-11-24T09:18:10.960Z,58.68
2022-11-24T09:20:38.620Z,58.64
2022-11-24T09:23:05.837Z,58.53
2022-11-24T09:25:33.148Z,58.51
2022-11-24T09:28:01.766Z,58.47
2022-11-24T09:30:31.656Z,58.28
2022-11-24T09:32:58.695Z,57.62
2022-11-24T09:35:25.850Z,57.92
2022-11-24T09:37:52.916Z,57.71
2022-11-24T09:40:22.286Z,57.48
2022-11-24T09:43:01.699Z,57.42
2022-11-24T09:46:09.373Z,57.29
2022-11-24T09:48:49.105Z,57.45
2022-11-24T09:51:31.536Z,57.43
2022-11-24T09:54:18.669Z,56.86
2022-11-24T09:56:48.942Z,57.02
2022-11-24T09:59:19.986Z,57.18
2022-11-24T10:01:50.808Z,57.14
2022-11-24T10:04:22.786Z,56.95
2022-11-24T10:07:05.835Z,56.88
2022-11-24T10:09:51.607Z,56.61
2022-11-24T10:12:44.744Z,56.84
2022-11-24T10:15:30.244Z,56.92
2022-11-24T10:18:28.182Z,56.02
2022-11-24T10:21:07.343Z,55.44
2022-11-24T10:23:57.857Z,55.61
2022-11-24T10:26:36.304Z,55.45
2022-11-24T10:29:19.918Z,55.80
2022-11-24T10:31:54.929Z,55.81
2022-11-24T10:34:41.656Z,55.24
2022-11-24T10:37:34.557Z,55.04
2022-11-24T10:40:26.982Z,55.03
2022-11-24T10:43:00.039Z,55.11
2022-11-24T10:45:29.387Z,55.00
2022-11-24T10:47:58.410Z,55.33
2022-11-24T10:50:32.510Z,54.81
2022-11-24T10:53:13.263Z,55.29
2022-11-24T10:56:04.988Z,55.28
2022-11-24T10:58:38.290Z,54.55
2022-11-24T11:01:31.998Z,55.00
2022-11-24T11:04:01.588Z,54.83
2022-11-24T11:06:32.110Z,54.82
2022-11-24T11:09:19.540Z,54.82
2022-11-24T11:11:48.750Z,54.33
2022-11-24T11:14:31.974Z,54.23
2022-11-24T11:16:59.837Z,54.55
2022-11-24T11:19:56.879Z,54.57
2022-11-24T11:22:29.847Z,54.79
2022-11-24T11:25:18.292Z,54.19
2022-11-24T11:27:45.904Z,54.33
2022-11-24T11:36:14.489Z,53.71
2022-11-24T11:38:46.021Z,53.88
2022-11-24T11:41:21.618Z,53.70
2022-11-24T11:44:00.539Z,53.09
2022-11-24T11:46:32.621Z,53.07
2022-11-24T11:49:00.355Z,53.26
2022-11-24T11:51:52.015Z,53.12
2022-11-24T11:54:35.582Z,52.93
2022-11-24T11:57:17.633Z,51.91
2022-11-24T12:00:03.686Z,51.93
2022-11-24T12:03:25.735Z,51.69
2022-11-24T12:06:14.243Z,51.75
2022-11-24T12:09:19.356Z,50.92
2022-11-24T12:12:25.961Z,51.70
2022-11-24T12:15:11.007Z,51.24
2022-11-24T12:17:45.678Z,51.45
2022-11-24T12:20:41.127Z,51.60
2022-11-24T12:23:22.859Z,51.04
2022-11-24T12:26:01.956Z,51.06
2022-11-24T12:28:47.489Z,51.14
2022-11-24T12:31:28.754Z,51.48
2022-11-24T12:34:33.454Z,51.28
2022-11-24T12:37:22.115Z,51.45
2022-11-24T12:40:02.073Z,51.81
2022-11-24T12:42:42.246Z,51.64
2022-11-24T12:45:17.960Z,51.58
2022-11-24T12:48:15.172Z,51.26
2022-11-24T12:50:45.829Z,51.38
2022-11-24T12:53:19.964Z,51.63
2022-11-24T12:55:48.233Z,51.77
2022-11-24T12:58:28.987Z,51.33
2022-11-24T13:01:18.492Z,51.61
2022-11-24T13:04:07.615Z,51.73
2022-11-24T13:06:49.853Z,51.81
2022-11-24T13:09:17.902Z,51.66
2022-11-24T13:11:47.015Z,51.83
2022-11-24T13:14:22.436Z,51.49
2022-11-24T13:19:45.024Z,51.43
2022-11-24T13:22:23.320Z,51.46
2022-11-24T13:25:16.709Z,51.60
2022-11-24T13:27:48.034Z,51.36
2022-11-24T13:31:08.066Z,51.45
2022-11-24T13:33:40.383Z,51.46
2022-11-24T13:36:34.914Z,51.49
2022-11-24T13:39:18.304Z,51.52
2022-11-24T13:42:09.945Z,51.44
2022-11-24T13:44:58.934Z,51.41
2022-11-24T13:47:39.441Z,51.28
2022-11-24T13:50:24.958Z,51.13
2022-11-24T13:53:06.515Z,50.98
2022-11-24T13:55:38.921Z,50.98
2022-11-24T13:58:31.878Z,51.65
2022-11-24T14:01:10.721Z,51.67
2022-11-24T14:04:07.095Z,51.39
2022-11-24T14:06:45.672Z,51.56
2022-11-24T14:09:27.068Z,51.51
2022-11-24T14:12:11.426Z,51.61
2022-11-24T14:14:38.683Z,51.75
2022-11-24T14:17:16.862Z,51.78
2022-11-24T14:19:47.094Z,51.74
2022-11-24T14:22:21.506Z,50.99
2022-11-24T14:24:55.621Z,51.47
2022-11-24T14:27:29.626Z,51.83
2022-11-24T14:29:59.197Z,52.06
2022-11-24T14:32:26.790Z,51.82
2022-11-24T14:34:54.430Z,52.37
2022-11-24T14:37:23.210Z,52.30
2022-11-24T14:39:50.649Z,52.58
2022-11-24T14:42:21.999Z,52.65
2022-11-24T14:44:56.257Z,52.60
2022-11-24T14:47:31.728Z,52.75
2022-11-24T14:50:11.834Z,52.92
2022-11-24T14:52:47.778Z,53.25
2022-11-24T14:55:29.964Z,53.52
2022-11-24T14:57:57.734Z,53.52
2022-11-24T15:00:33.089Z,53.86
2022-11-24T15:03:17.945Z,53.77
2022-11-24T15:05:55.642Z,54.27
2022-11-24T15:08:26.346Z,54.51
2022-11-24T15:11:00.047Z,54.65
2022-11-24T15:13:29.037Z,54.85
2022-11-24T15:16:03.141Z,55.06
2022-11-24T15:18:43.301Z,55.17
2022-11-24T15:21:17.226Z,55.51
2022-11-24T15:24:21.361Z,55.53
2022-11-24T15:26:48.602Z,55.81
2022-11-24T15:29:16.060Z,55.78
2022-11-24T15:31:46.426Z,55.79
2022-11-24T15:34:20.515Z,55.96
2022-11-24T15:36:47.715Z,56.19
2022-11-24T15:39:20.449Z,56.21
2022-11-24T15:41:47.910Z,56.39
2022-11-24T15:44:18.672Z,56.23
2022-11-24T15:46:45.805Z,56.67
2022-11-24T15:49:13.693Z,56.78
2022-11-24T15:51:45.683Z,56.87
2022-11-24T15:54:15.903Z,56.84
2022-11-24T15:56:45.321Z,56.95
2022-11-24T15:59:21.426Z,56.89
2022-11-24T16:01:50.482Z,57.00
2022-11-24T16:04:17.669Z,56.99
2022-11-24T16:06:44.886Z,57.05
2022-11-24T16:09:15.583Z,57.02
2022-11-24T16:11:44.201Z,57.30
2022-11-24T16:14:11.330Z,57.20
2022-11-24T16:16:38.600Z,57.44
2022-11-24T16:19:05.656Z,57.72
2022-11-24T16:21:32.788Z,57.92
2022-11-24T16:24:00.219Z,57.89
2022-11-24T16:26:28.292Z,58.25
2022-11-24T16:28:57.158Z,58.43
2022-11-24T16:31:24.614Z,58.52
2022-11-24T16:33:51.840Z,58.44
2022-11-24T16:36:18.918Z,58.42
2022-11-24T16:38:46.088Z,58.49
2022-11-24T16:41:13.744Z,58.51
2022-11-24T16:43:41.141Z,58.35
2022-11-24T16:46:22.200Z,58.56
2022-11-24T16:48:51.524Z,58.70
2022-11-24T16:51:21.605Z,59.02
2022-11-24T16:53:56.103Z,58.88
2022-11-24T16:56:23.156Z,58.41
2022-11-24T16:58:50.268Z,58.87
2022-11-24T17:01:18.826Z,58.91
2022-11-24T17:03:46.102Z,58.84
2022-11-24T17:06:16.759Z,58.61
2022-11-24T17:08:45.989Z,58.83
2022-11-24T17:11:15.380Z,58.80
2022-11-24T17:13:43.633Z,58.87
2022-11-24T17:16:14.819Z,59.00
2022-11-24T17:18:45.206Z,58.91
2022-11-24T17:21:15.211Z,58.86
2022-11-24T17:23:42.751Z,59.14
2022-11-24T17:26:14.055Z,59.12
2022-11-24T17:28:42.200Z,59.34
2022-11-24T17:31:17.867Z,59.27
2022-11-24T17:33:50.081Z,59.13
2022-11-24T17:36:17.555Z,59.33
2022-11-24T17:38:44.690Z,59.75
2022-11-24T17:41:13.872Z,59.75
2022-11-24T17:43:41.260Z,60.05
2022-11-24T17:46:11.298Z,60.11
2022-11-24T17:48:38.868Z,60.20
2022-11-24T17:51:12.599Z,60.39
2022-11-24T17:53:41.250Z,60.32
2022-11-24T17:56:12.991Z,60.56
2022-11-24T17:58:43.167Z,60.62
2022-11-24T18:01:11.866Z,60.45
2022-11-24T18:03:39.375Z,60.99
2022-11-24T18:06:10.521Z,60.71
2022-11-24T18:08:40.337Z,60.61
2022-11-24T18:11:10.681Z,60.61
2022-11-24T18:16:27.860Z,60.83
2022-11-24T18:19:07.769Z,60.88
2022-11-24T18:21:37.796Z,60.80
2022-11-24T18:24:05.833Z,60.78
2022-11-24T18:26:32.871Z,60.92
2022-11-24T18:29:00.092Z,60.74
2022-11-24T18:31:27.202Z,60.71
2022-11-24T18:33:54.195Z,60.72
2022-11-24T18:36:28.351Z,60.96
2022-11-24T18:39:00.533Z,61.14
2022-11-24T18:41:27.563Z,61.56
2022-11-24T18:43:54.705Z,61.55
2022-11-24T18:46:22.168Z,61.77
2022-11-24T18:48:51.863Z,61.68
2022-11-24T18:51:18.807Z,61.75
2022-11-24T18:53:51.560Z,61.64
2022-11-24T18:56:31.867Z,61.35
2022-11-24T18:58:58.818Z,61.95
2022-11-24T19:01:28.371Z,61.88
2022-11-24T19:03:57.879Z,62.16
2022-11-24T19:06:28.872Z,62.12
2022-11-24T19:08:56.175Z,62.10
2022-11-24T19:11:28.161Z,61.72
2022-11-24T19:13:56.470Z,61.86
2022-11-24T19:16:24.913Z,62.04
2022-11-24T19:18:56.538Z,62.03
2022-11-24T19:21:33.739Z,61.56
2022-11-24T19:24:05.226Z,62.05
2022-11-24T19:26:35.296Z,61.95
2022-11-24T19:29:02.973Z,62.13
2022-11-24T19:31:30.175Z,62.35
2022-11-24T19:33:59.476Z,62.04
2022-11-24T19:36:26.733Z,62.50
2022-11-24T19:38:56.811Z,62.20
2022-11-24T19:41:26.864Z,61.85
2022-11-24T19:43:55.277Z,61.59
2022-11-24T19:46:26.146Z,61.49
2022-11-24T19:48:55.978Z,62.04
2022-11-24T19:51:26.245Z,61.58
2022-11-24T19:53:54.260Z,61.45
2022-11-24T19:56:23.555Z,61.78
2022-11-24T19:58:52.921Z,61.85
2022-11-24T20:01:24.654Z,61.62
2022-11-24T20:03:58.779Z,61.51
2022-11-24T20:06:28.543Z,61.78
2022-11-24T20:08:57.641Z,61.53
2022-11-24T20:11:25.007Z,61.69
2022-11-24T20:13:52.276Z,61.64
2022-11-24T20:16:29.793Z,61.36
2022-11-24T20:18:59.896Z,61.45
2022-11-24T20:21:31.309Z,61.96
2022-11-24T20:24:01.017Z,61.76
2022-11-24T20:26:31.404Z,61.98
2022-11-24T20:29:00.032Z,61.48
2022-11-24T20:31:31.029Z,61.27
2022-11-24T20:33:59.465Z,62.07
2022-11-24T20:36:29.140Z,62.00
2022-11-24T20:38:58.393Z,61.79
2022-11-24T20:41:28.531Z,61.70
2022-11-24T20:43:59.668Z,61.16
2022-11-24T20:46:31.354Z,61.00
2022-11-24T20:48:59.850Z,61.75
2022-11-24T20:51:29.828Z,61.32
2022-11-24T20:54:00.351Z,61.36
2022-11-24T20:56:29.965Z,61.80
2022-11-24T20:58:57.659Z,61.92
2022-11-24T21:01:34.970Z,62.19
2022-11-24T21:04:03.306Z,62.06
2022-11-24T21:06:32.750Z,61.84
2022-11-24T21:09:03.729Z,62.00
2022-11-24T21:11:31.676Z,62.00
2022-11-24T21:13:59.591Z,61.84
2022-11-24T21:16:29.748Z,62.30
2022-11-24T21:19:01.538Z,62.12
2022-11-24T21:21:33.948Z,62.31
2022-11-24T21:24:01.888Z,61.89
2022-11-24T21:26:29.374Z,62.10
2022-11-24T21:28:57.438Z,61.75
2022-11-24T21:31:24.583Z,61.79
2022-11-24T21:33:53.883Z,62.27
2022-11-24T21:36:24.680Z,62.24
2022-11-24T21:38:53.339Z,61.76
2022-11-24T21:41:21.743Z,61.46
2022-11-24T21:43:49.847Z,61.61
2022-11-24T21:46:17.357Z,61.52
2022-11-24T21:48:44.770Z,61.32
2022-11-24T21:51:14.269Z,61.47
2022-11-24T21:53:43.720Z,62.09
2022-11-24T21:56:14.134Z,61.92
2022-11-24T21:58:45.809Z,61.87
2022-11-24T22:01:14.049Z,62.24
2022-11-24T22:03:41.195Z,62.46
2022-11-24T22:06:08.658Z,62.53
2022-11-24T22:08:35.891Z,62.63
2022-11-24T22:11:07.814Z,62.38
2022-11-24T22:13:34.977Z,62.62
2022-11-24T22:16:05.115Z,62.82
2022-11-24T22:18:34.155Z,63.14
2022-11-24T22:21:04.947Z,62.97
2022-11-24T22:23:33.297Z,63.13
2022-11-24T22:26:05.233Z,63.33
2022-11-24T22:28:33.721Z,63.57
2022-11-24T22:31:04.991Z,63.29
2022-11-24T22:33:32.092Z,63.29
2022-11-24T22:36:00.758Z,63.26
2022-11-24T22:38:29.845Z,63.18
2022-11-24T22:41:02.091Z,63.33
2022-11-24T22:43:32.571Z,63.32
2022-11-24T22:46:03.969Z,63.99
2022-11-24T22:48:31.173Z,63.52
2022-11-24T22:51:02.923Z,63.95
2022-11-24T22:53:30.293Z,63.89
2022-11-24T22:56:00.837Z,63.88
2022-11-24T22:58:27.790Z,63.25
2022-11-24T23:00:56.097Z,63.39
2022-11-24T23:03:23.137Z,63.82
2022-11-24T23:05:51.248Z,63.33
2022-11-24T23:08:18.234Z,64.04
2022-11-24T23:10:45.183Z,63.32
2022-11-24T23:13:12.103Z,63.23
2022-11-24T23:15:39.043Z,63.94
2022-11-24T23:18:07.297Z,63.89
2022-11-24T23:20:35.043Z,63.98
2022-11-24T23:23:01.957Z,63.72
2022-11-24T23:25:28.897Z,63.41
2022-11-24T23:27:55.787Z,63.89
2022-11-24T23:30:22.758Z,63.65
2022-11-24T23:32:49.718Z,63.19
2022-11-24T23:35:18.103Z,63.31
2022-11-24T23:38:06.586Z,63.18
2022-11-24T23:40:31.885Z,63.48
2022-11-24T23:42:58.810Z,63.36
2022-11-24T23:45:25.780Z,63.89
2022-11-24T23:47:54.004Z,63.56
2022-11-24T23:50:22.272Z,63.74
2022-11-24T23:52:49.173Z,63.55
2022-11-24T23:55:16.181Z,63.45
2022-11-24T23:57:43.087Z,63.74
